Detall de PIREP

Printer-friendly versionPDF version

[2015/08/23 05:37:00]
Flight IATA:CT2110
Pilot Number:041
Company ICAO:CAT
Aircraft Type:BE58/A
PAX:2
Departing Airport: LEVC
Destination Airport: LEST
Alternate Airport:LEMD
Online: VATSIM
Route:CENTA A33 FORNO
Flight Level:FL130
No Slew and time accel
No pause
Crash detect
Detect pilot in Cockpit between each 30 and 45 minutes
05:37 Zero fuel Weight: 4592 Lbs, Fuel Weight: 850 Lbs
05:37 VATSIM:LEVC 230500Z VRB02KT 9999 FEW030 21/19 Q1009 NOSIG
05:37 VATSIM:LEST 230500Z 21007KT 170V240 9999 SCT003 12/12 Q1012 TEMPO 4000 -RA
05:37 VOICE CATALONIAN
05:41 Parking Brakes off
05:47 Take-off
05:47 Take off Weight: 5438 Lbs
05:47 Wind: 076º @ 001 Knots Heading: 294º
05:47 POS N39º 29´ 19´´ W000º 28´ 47´´
05:47 Gear Up: 107 Knots
05:47 Flaps:1 at 107 Knots
05:48 Flaps:0 at 110 Knots
06:02 Wind:285º@012 Knots Heading: 298º Ground Speed: 164 Knots Altitude 12431 ft
06:02 TOC
06:02 Fuel Weight: 797 Lb
06:17 Wind:272º@023 Knots Heading: 296º Ground Speed: 186 Knots Altitude 12926 ft
06:32 Wind:274º@014 Knots Heading: 295º Ground Speed: 193 Knots Altitude 12965 ft
06:47 Wind:270º@015 Knots Heading: 294º Ground Speed: 194 Knots Altitude 12988 ft
07:02 Wind:267º@030 Knots Heading: 291º Ground Speed: 180 Knots Altitude 13031 ft
07:17 Wind:267º@024 Knots Heading: 293º Ground Speed: 188 Knots Altitude 13031 ft
07:32 Wind:272º@032 Knots Heading: 299º Ground Speed: 178 Knots Altitude 12998 ft
07:35 TOD
07:35 Fuel Weight: 456 Lb
07:47 Wind:253º@013 Knots Heading: 299º Ground Speed: 185 Knots Altitude 5977 ft
08:02 Wind:209º@009 Knots Heading: 301º Ground Speed: 188 Knots Altitude 3996 ft
08:10 Flaps:1 at 131 Knots
08:12 Gear Down: 131 Knots
08:14 Flaps:2 at 116 Knots
08:17 Wind:210º@008 Knots Heading: 168º Ground Speed: 095 Knots Altitude 1384 ft
08:17 TouchDown:Rate -117 ft/min Speed: 83 Knots
08:17 Flaps:1 at 70 Knots
08:17 Flaps:0 at 64 Knots
08:17 VATSIM:LEST 230800Z 20012KT 170V240 9999 SCT010 BKN038 14/12 Q1010 TEMPO 4000 -RA
08:17 Land
08:17 Wind:209º@008 Knots
08:17 Heading: 164º
08:17 Flight Duration: 02:30
08:17 Landing Weight: 4927 Lbs
08:17 POS N42º 54´ 09´´ W008º 25´ 01´´
08:20 Parking brakes on
08:20 Block to Block Duration: 02:39
08:20 Final Fuel: 335 Lbls
08:20 Spent Fuel: 515 Lbls
08:20 Flight Length: 443 NM
08:20 TOD Land Length: 122 NM

Exportar CSV

Powered by Drupal - Modified by Danger4k